Time;durP1;ratioP1;P1;durP2;ratioP2;P2;SDS_P1;SDS_P2;PMS_P1;PMS_P2;Temp;Humidity;BMP_temperature;BMP_pressure;BME280_temperature;BME280_humidity;BME280_pressure;Samples;Min_cycle;Max_cycle;Signal;HPM_P1;HPM_P2
2022/07/28 00:09:53;;;;;;;3.33;1.80;;;;;;;24.42;44.22;100355.47;18297482;32;20094;-56
2022/07/28 00:20:05;;;;;;;4.85;1.52;;;;;;;24.96;42.70;100340.62;18296927;32;20094;-56
2022/07/28 00:30:10;;;;;;;4.22;2.03;;;;;;;24.99;42.86;100321.72;18297865;32;20085;-56
2022/07/28 00:40:15;;;;;;;4.18;1.87;;;;;;;25.13;41.75;100317.28;18296432;32;20120;-56
2022/07/28 00:50:18;;;;;;;3.53;1.60;;;;;;;25.12;43.02;100320.94;18295479;32;20116;-56
2022/07/28 01:00:24;;;;;;;5.32;1.90;;;;;;;24.91;44.50;100319.56;18295617;32;20089;-56
2022/07/28 01:10:40;;;;;;;3.95;1.70;;;;;;;25.74;42.55;100323.09;18295105;32;20370;-56
2022/07/28 01:20:47;;;;;;;2.90;1.60;;;;;;;24.69;45.31;100319.16;18294711;32;20102;-56
2022/07/28 01:30:54;;;;;;;3.50;1.60;;;;;;;25.67;43.28;100326.28;18293737;32;20104;-56
2022/07/28 01:40:58;;;;;;;3.72;1.90;;;;;;;25.59;43.69;100330.31;18293912;32;20139;-56
2022/07/28 01:51:04;;;;;;;3.03;1.70;;;;;;;25.66;43.92;100330.81;18293719;32;20093;-56
2022/07/28 02:01:07;;;;;;;4.12;2.00;;;;;;;25.58;44.27;100320.59;18293126;32;20623;-56
2022/07/28 02:21:33;;;;;;;4.30;1.90;;;;;;;25.47;44.79;100328.44;18292115;32;20101;-56
2022/07/28 02:31:44;;;;;;;4.75;1.77;;;;;;;25.44;45.29;100326.00;18291274;31;20168;-56
2022/07/28 02:41:52;;;;;;;3.58;1.80;;;;;;;25.34;46.12;100323.06;18291389;32;20082;-57
2022/07/28 02:51:58;;;;;;;2.80;1.65;;;;;;;25.24;46.80;100332.63;18299891;32;20757;-56
2022/07/28 03:02:01;;;;;;;4.37;1.80;;;;;;;25.03;47.48;100341.94;18300017;32;20539;-56
2022/07/28 03:12:07;;;;;;;5.18;2.22;;;;;;;24.69;48.94;100352.06;18299728;32;20097;-56
2022/07/28 03:22:10;;;;;;;3.35;1.90;;;;;;;24.78;48.50;100364.88;18299089;32;20108;-56
2022/07/28 03:32:17;;;;;;;3.10;1.65;;;;;;;24.76;49.00;100355.19;18298867;32;20672;-57
2022/07/28 03:42:20;;;;;;;4.72;2.08;;;;;;;24.63;49.38;100363.97;18298808;32;20142;-55
2022/07/28 03:52:25;;;;;;;3.47;1.85;;;;;;;24.67;49.35;100381.50;18298359;32;20101;-56
2022/07/28 04:02:28;;;;;;;4.37;1.90;;;;;;;24.97;48.81;100392.19;18297629;32;20113;-55
2022/07/28 04:12:44;;;;;;;5.57;2.20;;;;;;;24.98;48.78;100401.91;18298332;32;20086;-55
2022/07/28 04:22:49;;;;;;;5.25;2.00;;;;;;;23.44;53.91;100390.47;18298165;32;20104;-55
2022/07/28 04:32:55;;;;;;;5.32;2.35;;;;;;;23.54;53.74;100398.81;18296545;32;20457;-56
2022/07/28 04:42:58;;;;;;;4.95;1.80;;;;;;;24.11;52.00;100408.84;18296338;32;20134;-56
2022/07/28 04:53:03;;;;;;;4.82;2.03;;;;;;;24.58;50.54;100399.91;18295512;32;20098;-56
2022/07/28 05:03:06;;;;;;;5.40;1.98;;;;;;;25.11;50.35;100413.56;18295463;32;20145;-56
2022/07/28 05:13:11;;;;;;;4.00;1.95;;;;;;;24.23;52.36;100425.06;18293837;32;20108;-56
2022/07/28 05:23:16;;;;;;;4.85;2.40;;;;;;;25.04;50.30;100423.78;18294515;32;20090;-56
2022/07/28 05:33:20;;;;;;;4.07;2.17;;;;;;;25.55;49.80;100432.19;18294265;32;20129;-56
2022/07/28 05:43:24;;;;;;;5.65;2.25;;;;;;;26.10;49.04;100445.53;18295003;32;20137;-56
2022/07/28 05:53:28;;;;;;;8.85;2.17;;;;;;;26.11;48.52;100441.91;18293150;32;20133;-56
2022/07/28 06:03:33;;;;;;;5.82;2.22;;;;;;;26.42;47.24;100456.78;18292987;32;20105;-56
2022/07/28 06:13:46;;;;;;;4.50;2.00;;;;;;;26.51;46.90;100465.13;18292527;32;20355;-56
2022/07/28 06:23:49;;;;;;;5.43;2.85;;;;;;;26.55;46.40;100478.19;18292081;32;20433;-55
2022/07/28 06:33:54;;;;;;;4.90;2.20;;;;;;;26.43;47.10;100487.06;18291859;32;20112;-55
2022/07/28 06:43:57;;;;;;;6.25;2.28;;;;;;;27.31;45.06;100480.13;18291460;32;20102;-55
2022/07/28 06:54:04;;;;;;;4.95;2.33;;;;;;;27.14;45.30;100482.19;18290772;32;20104;-56
2022/07/28 07:04:13;;;;;;;5.55;2.62;;;;;;;28.34;41.84;100488.78;18291503;32;20086;-56
2022/07/28 07:14:18;;;;;;;5.80;2.50;;;;;;;29.28;37.75;100487.84;18289414;32;20097;-56
2022/07/28 07:24:21;;;;;;;4.05;2.40;;;;;;;29.24;38.37;100486.38;18290232;32;20098;-56
2022/07/28 07:34:26;;;;;;;4.62;2.35;;;;;;;29.42;37.48;100484.91;18294641;32;20138;-56
2022/07/28 07:44:29;;;;;;;4.00;2.25;;;;;;;30.32;34.49;100484.78;18298425;32;20086;-56
2022/07/28 07:54:34;;;;;;;7.70;2.72;;;;;;;29.90;34.83;100482.88;18298862;32;20127;-56
2022/07/28 08:04:37;;;;;;;7.45;2.75;;;;;;;30.56;33.48;100489.06;18298894;32;20127;-56
2022/07/28 08:14:43;;;;;;;5.62;2.03;;;;;;;31.11;32.81;100469.09;18296965;32;20094;-56
2022/07/28 08:24:50;;;;;;;4.97;2.50;;;;;;;31.46;31.30;100467.81;18297809;32;20481;-56
2022/07/28 08:34:55;;;;;;;5.97;2.33;;;;;;;31.58;31.34;100468.53;18349954;32;20098;-55
2022/07/28 08:45:19;;;;;;;7.50;2.78;;;;;;;31.47;31.87;100465.94;18297488;32;20089;-56
2022/07/28 08:55:25;;;;;;;4.68;2.22;;;;;;;32.61;28.02;100461.88;18295964;32;20090;-56
2022/07/28 09:05:34;;;;;;;5.68;2.20;;;;;;;32.38;28.53;100464.91;18295423;32;20098;-56
2022/07/28 09:15:39;;;;;;;8.25;2.50;;;;;;;31.79;29.36;100454.94;18295483;32;20085;-56
2022/07/28 09:25:42;;;;;;;5.62;2.40;;;;;;;32.51;28.04;100462.75;18294761;32;20105;-56
2022/07/28 09:35:49;;;;;;;4.47;2.42;;;;;;;32.91;28.10;100446.41;18294439;32;20112;-56
2022/07/28 09:46:03;;;;;;;4.60;2.15;;;;;;;33.67;26.67;100435.47;18294151;32;20094;-55
2022/07/28 09:56:08;;;;;;;31.83;4.60;;;;;;;33.73;25.37;100426.75;18293136;31;20102;-56
2022/07/28 10:06:14;;;;;;;4.20;1.80;;;;;;;32.91;26.46;100427.47;18293112;32;20108;-56
2022/07/28 10:16:20;;;;;;;3.30;1.70;;;;;;;33.94;25.08;100420.16;18292424;32;20086;-55
2022/07/28 10:26:27;;;;;;;2.42;1.33;;;;;;;34.20;23.32;100411.25;18292232;32;20086;-56
2022/07/28 10:36:33;;;;;;;3.35;1.55;;;;;;;35.50;21.75;100400.34;18291829;32;20116;-56
2022/07/28 10:46:37;;;;;;;5.55;1.98;;;;;;;35.19;23.20;100390.13;18291428;32;20102;-55
2022/07/28 10:56:48;;;;;;;2.25;1.20;;;;;;;36.19;21.11;100382.06;18291416;31;20117;-55
2022/07/28 11:06:54;;;;;;;3.62;1.30;;;;;;;34.72;22.35;100386.88;18293655;32;20093;-56
2022/07/28 11:17:20;;;;;;;3.05;1.60;;;;;;;35.38;21.99;100374.53;18351687;32;20089;-55
2022/07/28 11:28:00;;;;;;;2.47;1.42;;;;;;;35.16;21.61;100368.75;18300638;32;20104;-55
2022/07/28 11:38:12;;;;;;;2.83;1.50;;;;;;;35.08;21.80;100366.88;18298816;32;20466;-56
2022/07/28 11:48:17;;;;;;;3.28;1.50;;;;;;;33.87;22.13;100363.97;18298529;32;20090;-55
2022/07/28 11:58:25;;;;;;;2.83;1.50;;;;;;;35.22;21.29;100357.25;18299076;32;20125;-55
2022/07/28 12:08:29;;;;;;;2.95;1.52;;;;;;;36.30;21.22;100337.38;18297684;32;20090;-56
2022/07/28 12:18:34;;;;;;;1.80;1.48;;;;;;;36.94;19.39;100331.00;18349714;32;20366;-56
2022/07/28 12:28:38;;;;;;;3.62;1.70;;;;;;;37.13;19.19;100321.56;18350479;32;20106;-56
2022/07/28 12:38:43;;;;;;;2.97;1.73;;;;;;;37.05;18.73;100322.47;18296025;32;20090;-55
2022/07/28 12:48:47;;;;;;;4.20;1.87;;;;;;;35.53;20.49;100315.03;18348867;32;20109;-55
2022/07/28 12:59:03;;;;;;;5.85;2.00;;;;;;;36.97;20.28;100313.47;18295869;32;20111;-54
2022/07/28 13:09:07;;;;;;;4.25;2.22;;;;;;;37.55;19.37;100310.38;18295601;32;20758;-55
2022/07/28 13:19:22;;;;;;;3.70;2.03;;;;;;;37.77;18.86;100305.09;18295020;32;20094;-55
2022/07/28 13:29:26;;;;;;;7.97;2.17;;;;;;;37.93;18.71;100293.19;18294147;32;20366;-55
2022/07/28 13:39:30;;;;;;;3.65;2.03;;;;;;;37.61;19.25;100296.03;18294218;32;20116;-55
2022/07/28 13:49:36;;;;;;;5.40;2.12;;;;;;;37.58;19.26;100283.66;18293872;32;20141;-55
2022/07/28 13:59:41;;;;;;;3.03;1.95;;;;;;;37.95;18.65;100274.78;18293445;31;20094;-55
2022/07/28 14:09:46;;;;;;;5.93;1.90;;;;;;;36.77;19.87;100273.16;18345707;32;20145;-55
2022/07/28 14:19:51;;;;;;;4.60;2.10;;;;;;;36.15;21.18;100272.06;18291915;32;20112;-55
2022/07/28 14:29:54;;;;;;;4.60;2.20;;;;;;;35.61;22.19;100274.34;18293072;32;20145;-55
2022/07/28 14:39:58;;;;;;;5.45;2.03;;;;;;;36.20;21.38;100259.66;18291583;32;20137;-55
2022/07/28 14:50:02;;;;;;;12.23;2.62;;;;;;;36.43;21.47;100266.19;18291184;32;20102;-55
2022/07/28 15:00:09;;;;;;;3.80;1.90;;;;;;;35.47;23.67;100261.44;18290507;32;20098;-55
2022/07/28 15:10:12;;;;;;;7.95;2.30;;;;;;;35.18;23.18;100262.81;18288855;32;20169;-55
2022/07/28 15:20:17;;;;;;;4.97;2.30;;;;;;;34.64;24.37;100248.62;18289463;32;20094;-55
2022/07/28 15:30:20;;;;;;;4.05;2.10;;;;;;;34.59;23.78;100243.69;18290191;32;20093;-55
2022/07/28 15:40:25;;;;;;;5.40;2.35;;;;;;;34.15;25.67;100239.28;18288236;32;20112;-56
2022/07/28 15:50:28;;;;;;;5.82;1.90;;;;;;;33.84;26.66;100252.44;18290146;32;20113;-55
2022/07/28 16:00:33;;;;;;;5.18;2.35;;;;;;;33.91;25.52;100248.06;18297672;32;20097;-55
2022/07/28 16:10:37;;;;;;;5.50;2.10;;;;;;;33.76;27.18;100235.12;18297677;32;20098;-56
2022/07/28 16:20:41;;;;;;;5.45;2.37;;;;;;;33.38;28.48;100244.47;18296447;32;20115;-55
2022/07/28 16:30:44;;;;;;;8.13;2.50;;;;;;;32.98;30.82;100233.16;18348086;32;20093;-55
2022/07/28 16:40:49;;;;;;;10.52;2.62;;;;;;;32.52;32.78;100240.22;18296047;32;20086;-55
2022/07/28 16:50:52;;;;;;;6.68;2.33;;;;;;;32.05;35.01;100243.84;18294908;32;20101;-55
2022/07/28 17:00:57;;;;;;;6.55;2.40;;;;;;;31.70;36.38;100245.31;18295268;32;20108;-55
2022/07/28 17:11:01;;;;;;;7.60;3.42;;;;;;;31.68;35.19;100250.87;18295132;32;20125;-56
2022/07/28 17:21:06;;;;;;;6.55;2.42;;;;;;;31.77;36.18;100250.97;18346829;32;20097;-56
2022/07/28 17:31:09;;;;;;;6.60;2.97;;;;;;;31.56;36.61;100252.03;18293912;32;20101;-55
2022/07/28 17:41:14;;;;;;;6.62;3.00;;;;;;;31.47;36.44;100248.34;18291432;31;20085;-56
2022/07/28 17:51:18;;;;;;;4.87;2.40;;;;;;;31.30;37.44;100260.69;18285697;32;20124;-55
2022/07/28 18:01:22;;;;;;;8.20;2.87;;;;;;;31.13;38.14;100265.78;18286557;32;20186;-56
2022/07/28 18:11:26;;;;;;;5.82;2.17;;;;;;;30.68;40.04;100275.22;18286861;32;20086;-56
2022/07/28 18:21:31;;;;;;;8.02;3.10;;;;;;;30.15;41.00;100265.50;18339195;32;20339;-56
2022/07/28 18:31:37;;;;;;;9.00;2.72;;;;;;;29.73;42.09;100279.81;18338148;32;20195;-56
2022/07/28 18:41:49;;;;;;;6.32;3.20;;;;;;;29.36;42.74;100302.59;18284495;32;20102;-56
2022/07/28 18:51:53;;;;;;;12.77;3.45;;;;;;;28.69;44.42;100307.12;18285653;32;20090;-56
2022/07/28 19:01:58;;;;;;;6.80;3.00;;;;;;;28.40;44.79;100316.50;18284873;32;20488;-56
2022/07/28 19:12:01;;;;;;;7.93;2.78;;;;;;;28.06;45.83;100325.34;18284126;32;20109;-56
2022/07/28 19:22:08;;;;;;;8.60;3.03;;;;;;;27.61;45.73;100330.59;18283918;32;20105;-56
2022/07/28 19:32:11;;;;;;;4.45;2.30;;;;;;;27.28;46.40;100338.34;18291714;32;20089;-56
2022/07/28 19:42:16;;;;;;;8.35;3.20;;;;;;;26.87;47.01;100343.03;18435465;32;20167;-56
2022/07/28 19:52:19;;;;;;;7.78;3.20;;;;;;;26.49;47.00;100347.47;18299766;32;20116;-56
2022/07/28 20:02:27;;;;;;;9.63;3.28;;;;;;;26.09;49.06;100355.56;18158760;32;5546736;-57
2022/07/28 20:12:30;;;;;;;6.22;3.28;;;;;;;25.76;50.66;100363.09;18340758;32;20116;-56
2022/07/28 20:22:40;;;;;;;7.35;2.87;;;;;;;25.75;48.86;100377.44;18297272;32;20086;-55
2022/07/28 20:32:44;;;;;;;6.45;3.25;;;;;;;25.48;49.71;100381.81;18294999;32;20485;-56
2022/07/28 20:42:51;;;;;;;7.12;3.10;;;;;;;25.27;50.47;100388.53;18291130;32;20116;-56
2022/07/28 20:52:55;;;;;;;6.85;3.10;;;;;;;25.03;51.21;100407.84;18292626;32;20118;-56
2022/07/28 21:03:00;;;;;;;7.80;3.55;;;;;;;25.04;51.56;100417.56;18344498;32;20108;-56
2022/07/28 21:13:09;;;;;;;6.55;3.20;;;;;;;24.84;52.11;100418.81;18292131;31;20112;-56
2022/07/28 21:23:55;;;;;;;7.68;3.20;;;;;;;24.91;51.42;100409.47;18285647;32;20207;-55
2022/07/28 22:07:19;;;;;;;4.05;1.90;;;;;;;25.16;45.08;100456.84;18557892;32;20424;-55
2022/07/28 22:17:52;;;;;;;4.15;2.10;;;;;;;25.56;43.65;100469.50;18548599;32;20126;-55
2022/07/28 22:28:29;;;;;;;4.35;2.00;;;;;;;25.88;42.39;100479.06;18537810;32;20109;-56
2022/07/28 22:38:54;;;;;;;4.80;2.12;;;;;;;26.11;42.10;100474.00;18473926;32;20108;-56
2022/07/28 23:43:32;;;;;;;4.35;2.28;;;;;;;25.20;44.82;100485.09;18562150;32;20391;-56
